Time;durP1;ratioP1;P1;durP2;ratioP2;P2;SDS_P1;SDS_P2;PMS_P1;PMS_P2;Temp;Humidity;BMP_temperature;BMP_pressure;BME280_temperature;BME280_humidity;BME280_pressure;Samples;Min_cycle;Max_cycle;Signal;HPM_P1;HPM_P2
2022/04/15 00:00:08;;;;;;;;;;;12.70;87.20;;;;;;5081107;28;19923;-68
2022/04/15 00:02:34;;;;;;;;;;;12.70;86.60;;;;;;5071747;28;19912;-68
2022/04/15 00:04:59;;;;;;;;;;;12.70;86.70;;;;;;5047625;28;19912;-68
2022/04/15 00:07:25;;;;;;;;;;;12.60;86.70;;;;;;5064654;28;19916;-68
2022/04/15 00:09:50;;;;;;;;;;;12.60;86.90;;;;;;5046270;28;20050;-68
2022/04/15 00:12:27;;;;;;;;;;;12.60;86.80;;;;;;5064379;28;19977;-68
2022/04/15 00:14:53;;;;;;;;;;;12.60;86.70;;;;;;5064566;28;19920;-68
2022/04/15 00:17:18;;;;;;;;;;;12.50;86.90;;;;;;5046015;28;19916;-68
2022/04/15 00:19:46;;;;;;;;;;;12.50;86.90;;;;;;5046793;28;20517;-68
2022/04/15 00:22:11;;;;;;;;;;;12.50;86.80;;;;;;5063217;28;20015;-68
2022/04/15 00:24:37;;;;;;;;;;;12.50;87.00;;;;;;5066971;28;20472;-68
2022/04/15 00:27:02;;;;;;;;;;;12.40;87.00;;;;;;5067127;28;19958;-68
2022/04/15 00:29:28;;;;;;;;;;;12.40;87.60;;;;;;5067200;28;19916;-68
2022/04/15 00:31:54;;;;;;;;;;;12.40;87.00;;;;;;5071103;28;20291;-68
2022/04/15 00:34:19;;;;;;;;;;;12.40;86.90;;;;;;5070249;28;19955;-68
2022/04/15 00:36:45;;;;;;;;;;;12.40;87.20;;;;;;5050205;28;19946;-68
2022/04/15 00:39:10;;;;;;;;;;;12.40;87.20;;;;;;5067930;28;19909;-68
2022/04/15 00:41:35;;;;;;;;;;;12.30;87.20;;;;;;5067084;28;19917;-68
2022/04/15 00:44:01;;;;;;;;;;;12.30;87.20;;;;;;5068120;28;19913;-68
2022/04/15 00:46:26;;;;;;;;;;;12.20;87.10;;;;;;5068031;28;20599;-68
2022/04/15 00:48:52;;;;;;;;;;;12.20;87.20;;;;;;5065913;28;19924;-68
2022/04/15 00:51:18;;;;;;;;;;;12.20;87.10;;;;;;5067577;28;20555;-68
2022/04/15 00:53:45;;;;;;;;;;;12.20;87.90;;;;;;5068041;28;19912;-68
2022/04/15 00:56:11;;;;;;;;;;;12.10;87.20;;;;;;5064770;28;19912;-68
2022/04/15 00:58:38;;;;;;;;;;;12.10;87.20;;;;;;5073316;28;19969;-68
2022/04/15 01:01:05;;;;;;;;;;;12.10;87.30;;;;;;5076777;28;19928;-68
2022/04/15 01:03:31;;;;;;;;;;;12.10;87.30;;;;;;5072083;28;19919;-68
2022/04/15 01:05:58;;;;;;;;;;;12.00;87.30;;;;;;5067949;28;19909;-68
2022/04/15 01:08:25;;;;;;;;;;;12.00;87.40;;;;;;5064566;28;20349;-68
2022/04/15 01:10:53;;;;;;;;;;;12.00;87.40;;;;;;5049738;28;19986;-68
2022/04/15 01:13:20;;;;;;;;;;;12.00;87.40;;;;;;5066219;28;19966;-68
2022/04/15 01:15:46;;;;;;;;;;;12.00;87.50;;;;;;5067635;28;19927;-68
2022/04/15 01:18:12;;;;;;;;;;;11.90;87.40;;;;;;5049172;28;19958;-68
2022/04/15 01:20:38;;;;;;;;;;;11.90;87.40;;;;;;5066678;28;19944;-68
2022/04/15 01:23:07;;;;;;;;;;;11.90;87.50;;;;;;5067024;28;19912;-68
2022/04/15 01:25:32;;;;;;;;;;;11.90;87.40;;;;;;5067127;28;19912;-68
2022/04/15 01:27:58;;;;;;;;;;;11.90;87.60;;;;;;5067102;28;19913;-68
2022/04/15 01:30:24;;;;;;;;;;;11.80;87.50;;;;;;5067223;28;20010;-68
2022/04/15 01:32:49;;;;;;;;;;;11.80;87.60;;;;;;5070846;28;19987;-68
2022/04/15 01:35:16;;;;;;;;;;;11.80;87.70;;;;;;5067301;28;19916;-68
2022/04/15 01:37:42;;;;;;;;;;;11.70;87.60;;;;;;5066803;28;20537;-68
2022/04/15 01:40:09;;;;;;;;;;;11.70;87.60;;;;;;5065607;28;19923;-68
2022/04/15 01:42:35;;;;;;;;;;;11.70;87.60;;;;;;5045157;28;19913;-68
2022/04/15 01:45:01;;;;;;;;;;;11.70;87.60;;;;;;5060286;28;19916;-68
2022/04/15 01:47:26;;;;;;;;;;;11.70;87.70;;;;;;5066879;28;19935;-68
2022/04/15 01:49:52;;;;;;;;;;;11.70;87.70;;;;;;5066782;28;20527;-68
2022/04/15 01:52:18;;;;;;;;;;;11.60;87.70;;;;;;5066856;28;19954;-68
2022/04/15 01:54:44;;;;;;;;;;;11.60;87.70;;;;;;5066807;28;19940;-68
2022/04/15 01:57:11;;;;;;;;;;;11.60;87.80;;;;;;5067145;28;19947;-68
2022/04/15 01:59:37;;;;;;;;;;;11.60;87.80;;;;;;5079691;28;19919;-68
2022/04/15 02:02:03;;;;;;;;;;;11.50;87.70;;;;;;5052023;28;19916;-68
2022/04/15 02:04:29;;;;;;;;;;;11.60;87.80;;;;;;5048057;28;19913;-68
2022/04/15 02:06:55;;;;;;;;;;;11.50;87.90;;;;;;5065957;28;19912;-68
2022/04/15 02:09:20;;;;;;;;;;;11.50;88.00;;;;;;5066221;28;19917;-68
2022/04/15 02:11:46;;;;;;;;;;;11.50;88.00;;;;;;5055045;28;19912;-68
2022/04/15 02:14:12;;;;;;;;;;;11.50;87.90;;;;;;5066556;28;19914;-68
2022/04/15 02:16:38;;;;;;;;;;;11.50;87.90;;;;;;5063801;28;20531;-68
2022/04/15 02:19:04;;;;;;;;;;;11.40;87.80;;;;;;5047932;28;19919;-68
2022/04/15 02:21:30;;;;;;;;;;;11.40;88.00;;;;;;5065923;28;20424;-68
2022/04/15 02:23:55;;;;;;;;;;;11.40;88.00;;;;;;5065751;28;20428;-68
2022/04/15 02:26:21;;;;;;;;;;;11.40;88.10;;;;;;5066229;28;19908;-68
2022/04/15 02:28:46;;;;;;;;;;;11.40;88.00;;;;;;5065940;28;19913;-68
2022/04/15 02:31:11;;;;;;;;;;;11.40;88.00;;;;;;5066029;28;19916;-68
2022/04/15 02:33:37;;;;;;;;;;;11.30;87.90;;;;;;5068278;28;19912;-68
2022/04/15 02:36:03;;;;;;;;;;;11.30;88.00;;;;;;5066009;28;19919;-68
2022/04/15 02:38:28;;;;;;;;;;;11.30;88.00;;;;;;5065801;28;19944;-68
2022/04/15 02:40:54;;;;;;;;;;;11.30;88.00;;;;;;5065454;28;19916;-68
2022/04/15 02:43:20;;;;;;;;;;;11.20;88.00;;;;;;5065314;28;19916;-68
2022/04/15 02:45:46;;;;;;;;;;;11.30;88.70;;;;;;5065292;28;19916;-68
2022/04/15 02:48:12;;;;;;;;;;;11.20;88.10;;;;;;5065643;28;19920;-68
2022/04/15 02:50:39;;;;;;;;;;;11.20;88.10;;;;;;5065925;28;19916;-68
2022/04/15 02:53:05;;;;;;;;;;;11.20;88.10;;;;;;5064936;28;19913;-68
2022/04/15 02:55:31;;;;;;;;;;;11.20;88.00;;;;;;5062923;28;20554;-68
2022/04/15 02:57:56;;;;;;;;;;;11.20;88.10;;;;;;5044211;28;19935;-68
2022/04/15 03:00:22;;;;;;;;;;;11.20;88.20;;;;;;5076973;28;20012;-68
2022/04/15 03:02:47;;;;;;;;;;;11.10;88.10;;;;;;5067624;28;19944;-68
2022/04/15 03:05:13;;;;;;;;;;;11.10;88.10;;;;;;5065181;28;19923;-68
2022/04/15 03:07:38;;;;;;;;;;;11.10;88.10;;;;;;5065443;28;19919;-69
2022/04/15 03:10:07;;;;;;;;;;;11.10;88.20;;;;;;5064803;28;19917;-68
2022/04/15 03:12:34;;;;;;;;;;;11.10;88.30;;;;;;5064585;28;19913;-68
2022/04/15 03:15:00;;;;;;;;;;;11.00;88.20;;;;;;5064860;28;19912;-68
2022/04/15 03:17:25;;;;;;;;;;;11.00;88.30;;;;;;5064785;28;20580;-69
2022/04/15 03:19:51;;;;;;;;;;;11.00;88.30;;;;;;5066576;28;20368;-68
2022/04/15 03:22:17;;;;;;;;;;;11.00;88.20;;;;;;5065003;28;20292;-69
2022/04/15 03:24:42;;;;;;;;;;;11.00;88.30;;;;;;5065012;28;20008;-68
2022/04/15 03:27:08;;;;;;;;;;;10.90;88.30;;;;;;5079883;28;20347;-68
2022/04/15 03:29:33;;;;;;;;;;;10.90;88.30;;;;;;5063965;28;19977;-68
2022/04/15 03:31:59;;;;;;;;;;;10.90;88.30;;;;;;5064399;28;19920;-68
2022/04/15 03:34:24;;;;;;;;;;;10.90;88.30;;;;;;5064228;28;19912;-69
2022/04/15 03:36:50;;;;;;;;;;;10.90;88.30;;;;;;5064809;28;19916;-68
2022/04/15 03:39:15;;;;;;;;;;;10.90;88.30;;;;;;5064910;28;20416;-68
2022/04/15 03:41:41;;;;;;;;;;;10.80;88.30;;;;;;5064586;28;19915;-68
2022/04/15 03:44:06;;;;;;;;;;;10.80;88.30;;;;;;5064754;28;19917;-68
2022/04/15 03:46:32;;;;;;;;;;;10.80;88.40;;;;;;5062580;28;20095;-68
2022/04/15 03:48:57;;;;;;;;;;;10.80;88.40;;;;;;5064937;28;19920;-68
2022/04/15 03:51:22;;;;;;;;;;;10.80;88.50;;;;;;5064624;28;19913;-68
2022/04/15 03:53:48;;;;;;;;;;;10.80;88.50;;;;;;5062242;28;19966;-68
2022/04/15 03:56:13;;;;;;;;;;;10.70;88.40;;;;;;5064520;28;19912;-68
2022/04/15 03:58:39;;;;;;;;;;;10.70;88.50;;;;;;5066180;28;19912;-68
2022/04/15 04:01:04;;;;;;;;;;;10.70;88.40;;;;;;5071126;28;19999;-68
2022/04/15 04:03:30;;;;;;;;;;;10.70;88.40;;;;;;5068385;28;20010;-68
2022/04/15 04:05:55;;;;;;;;;;;10.60;88.40;;;;;;5068867;28;20030;-68
2022/04/15 04:08:21;;;;;;;;;;;10.70;88.40;;;;;;5068520;28;19956;-68
2022/04/15 04:10:46;;;;;;;;;;;10.70;88.40;;;;;;5068836;28;19924;-69
2022/04/15 04:13:12;;;;;;;;;;;10.60;88.40;;;;;;5068490;28;19947;-68
2022/04/15 04:15:37;;;;;;;;;;;10.60;88.40;;;;;;5068951;28;20253;-68
2022/04/15 04:18:03;;;;;;;;;;;10.60;88.40;;;;;;5068614;28;19919;-68
2022/04/15 04:20:28;;;;;;;;;;;10.60;88.40;;;;;;5065501;28;19912;-68
2022/04/15 04:22:54;;;;;;;;;;;10.50;88.30;;;;;;5050011;28;19916;-69
2022/04/15 04:25:20;;;;;;;;;;;10.50;88.50;;;;;;5068181;28;19915;-69
2022/04/15 04:27:45;;;;;;;;;;;10.50;88.40;;;;;;5068458;28;19916;-68
2022/04/15 04:30:14;;;;;;;;;;;10.50;88.40;;;;;;5068112;28;20018;-68
2022/04/15 04:32:40;;;;;;;;;;;10.50;88.40;;;;;;5067364;28;19919;-68
2022/04/15 04:35:06;;;;;;;;;;;10.50;88.40;;;;;;5068019;28;19916;-68
2022/04/15 04:37:32;;;;;;;;;;;10.50;88.30;;;;;;5067962;28;19916;-68
2022/04/15 04:39:57;;;;;;;;;;;10.50;88.40;;;;;;5065148;28;19913;-69
2022/04/15 04:42:23;;;;;;;;;;;10.40;88.30;;;;;;5067884;28;19912;-68
2022/04/15 04:44:49;;;;;;;;;;;10.40;88.40;;;;;;5068472;28;20443;-69
2022/04/15 04:47:14;;;;;;;;;;;10.40;88.30;;;;;;5068036;28;20537;-68
2022/04/15 04:49:40;;;;;;;;;;;10.40;88.30;;;;;;5067759;28;19916;-69
2022/04/15 04:52:06;;;;;;;;;;;10.40;88.40;;;;;;5067878;28;20289;-68
2022/04/15 04:54:32;;;;;;;;;;;10.40;88.10;;;;;;5067537;28;19916;-68
2022/04/15 04:56:57;;;;;;;;;;;10.40;88.30;;;;;;5066608;28;20640;-69
2022/04/15 04:59:25;;;;;;;;;;;10.40;88.30;;;;;;5049744;28;19924;-69
2022/04/15 05:01:51;;;;;;;;;;;10.40;88.20;;;;;;5067408;28;19917;-68
2022/04/15 05:04:16;;;;;;;;;;;10.40;88.10;;;;;;5067647;28;19912;-69
2022/04/15 05:06:42;;;;;;;;;;;10.40;88.20;;;;;;5067429;28;19931;-68
2022/04/15 05:09:07;;;;;;;;;;;10.40;88.20;;;;;;5067471;28;19952;-69
2022/04/15 05:11:33;;;;;;;;;;;10.40;88.00;;;;;;5067196;28;20004;-69
2022/04/15 05:13:58;;;;;;;;;;;10.40;88.10;;;;;;5067442;28;20034;-68
2022/04/15 05:16:24;;;;;;;;;;;10.40;88.00;;;;;;5067624;28;19916;-68
2022/04/15 05:18:50;;;;;;;;;;;10.40;88.20;;;;;;5067294;28;19931;-69
2022/04/15 05:21:15;;;;;;;;;;;10.40;88.10;;;;;;5067537;28;20533;-68
2022/04/15 05:23:41;;;;;;;;;;;10.40;88.10;;;;;;5067543;28;19919;-69
2022/04/15 05:26:06;;;;;;;;;;;10.40;88.20;;;;;;5049404;28;19999;-69
2022/04/15 05:28:35;;;;;;;;;;;10.40;88.10;;;;;;5067464;28;19964;-68
2022/04/15 05:31:02;;;;;;;;;;;10.40;88.30;;;;;;5066991;28;20391;-69
2022/04/15 05:33:27;;;;;;;;;;;10.40;88.30;;;;;;5077528;28;20130;-68
2022/04/15 05:35:53;;;;;;;;;;;10.40;88.40;;;;;;5066850;28;20007;-68
2022/04/15 05:38:18;;;;;;;;;;;10.50;88.60;;;;;;5067171;28;20383;-68
2022/04/15 05:40:44;;;;;;;;;;;10.40;88.40;;;;;;5066603;28;19916;-68
2022/04/15 05:43:09;;;;;;;;;;;10.40;88.40;;;;;;5066481;28;19920;-69
2022/04/15 05:45:35;;;;;;;;;;;10.50;88.60;;;;;;5067275;28;19916;-69
2022/04/15 05:48:00;;;;;;;;;;;10.50;88.60;;;;;;5066508;28;20027;-68
2022/04/15 05:50:26;;;;;;;;;;;10.50;88.70;;;;;;5066945;28;20013;-69
2022/04/15 05:52:51;;;;;;;;;;;10.50;88.60;;;;;;5066696;28;19915;-69
2022/04/15 05:55:17;;;;;;;;;;;10.50;88.70;;;;;;5059993;28;19912;-68
2022/04/15 05:57:42;;;;;;;;;;;10.50;88.80;;;;;;5068070;28;20017;-69
2022/04/15 06:00:09;;;;;;;;;;;10.50;88.90;;;;;;5074949;28;20353;-69
2022/04/15 06:02:34;;;;;;;;;;;10.50;88.90;;;;;;5076468;28;19912;-68
2022/04/15 06:05:00;;;;;;;;;;;10.50;88.80;;;;;;5067895;28;20492;-68
2022/04/15 06:07:25;;;;;;;;;;;10.50;88.80;;;;;;5063617;28;19920;-69
2022/04/15 06:09:51;;;;;;;;;;;10.50;88.80;;;;;;5066413;28;20573;-69
2022/04/15 06:12:16;;;;;;;;;;;10.50;88.60;;;;;;5047814;28;20003;-68
2022/04/15 06:14:42;;;;;;;;;;;10.50;88.70;;;;;;5066516;28;20560;-68
2022/04/15 06:17:07;;;;;;;;;;;10.50;88.80;;;;;;5062941;28;19936;-69
2022/04/15 06:19:33;;;;;;;;;;;10.50;88.80;;;;;;5081549;28;20020;-69
2022/04/15 06:21:58;;;;;;;;;;;10.50;88.80;;;;;;5064890;28;20018;-68
2022/04/15 06:24:24;;;;;;;;;;;10.50;88.80;;;;;;5065461;28;20284;-69
2022/04/15 06:26:50;;;;;;;;;;;10.50;88.70;;;;;;5062675;28;20007;-69
2022/04/15 06:29:16;;;;;;;;;;;10.50;88.60;;;;;;5065105;28;20536;-69
2022/04/15 06:31:41;;;;;;;;;;;10.50;88.60;;;;;;5066131;28;19908;-68
2022/04/15 06:34:07;;;;;;;;;;;10.50;88.50;;;;;;5074524;28;19912;-68
2022/04/15 06:36:32;;;;;;;;;;;10.50;88.60;;;;;;5065438;28;19928;-68
2022/04/15 06:38:58;;;;;;;;;;;10.50;88.40;;;;;;5060489;28;20003;-69
2022/04/15 06:41:23;;;;;;;;;;;10.50;88.50;;;;;;5065121;28;19944;-68
2022/04/15 06:43:49;;;;;;;;;;;10.50;88.50;;;;;;5065673;28;20010;-68
2022/04/15 06:46:14;;;;;;;;;;;10.50;88.40;;;;;;5065681;28;19912;-68
2022/04/15 06:48:40;;;;;;;;;;;10.50;88.40;;;;;;5065279;28;19920;-68
2022/04/15 06:51:05;;;;;;;;;;;10.50;88.50;;;;;;5048005;28;20300;-68
2022/04/15 06:53:31;;;;;;;;;;;10.50;88.40;;;;;;5065153;28;19965;-68
2022/04/15 06:55:56;;;;;;;;;;;10.50;88.50;;;;;;5047705;28;19916;-69
2022/04/15 06:58:22;;;;;;;;;;;10.50;88.40;;;;;;5047671;28;19915;-68
2022/04/15 07:00:48;;;;;;;;;;;10.60;88.40;;;;;;5065150;28;19912;-68
2022/04/15 07:03:13;;;;;;;;;;;10.50;88.30;;;;;;5076675;28;19912;-69
2022/04/15 07:05:39;;;;;;;;;;;10.60;88.30;;;;;;5065401;28;20276;-68
2022/04/15 07:08:07;;;;;;;;;;;10.60;88.20;;;;;;5063948;28;20432;-68
2022/04/15 07:10:33;;;;;;;;;;;10.60;88.30;;;;;;5048106;28;19990;-68
2022/04/15 07:12:58;;;;;;;;;;;10.60;88.10;;;;;;5073590;28;19912;-68
2022/04/15 07:15:25;;;;;;;;;;;10.60;88.10;;;;;;5065510;28;19923;-69
2022/04/15 07:17:50;;;;;;;;;;;10.60;88.00;;;;;;5054722;28;20466;-68
2022/04/15 07:20:16;;;;;;;;;;;10.60;88.00;;;;;;5065468;28;19924;-68
2022/04/15 07:22:41;;;;;;;;;;;10.60;88.00;;;;;;5065082;28;20329;-68
2022/04/15 07:25:07;;;;;;;;;;;10.60;87.90;;;;;;5065095;28;19936;-68
2022/04/15 07:27:33;;;;;;;;;;;10.60;87.90;;;;;;5065177;28;19912;-68
2022/04/15 07:29:58;;;;;;;;;;;10.60;87.90;;;;;;5064964;28;20007;-68
2022/04/15 07:32:25;;;;;;;;;;;10.60;87.80;;;;;;5072161;28;20003;-69
2022/04/15 07:34:51;;;;;;;;;;;10.70;87.70;;;;;;5062617;28;20352;-69
2022/04/15 07:37:17;;;;;;;;;;;10.70;87.50;;;;;;5060797;28;20003;-68
2022/04/15 07:39:42;;;;;;;;;;;10.70;87.30;;;;;;5064298;28;19915;-69
2022/04/15 07:42:08;;;;;;;;;;;10.70;87.10;;;;;;5064612;28;19912;-68
2022/04/15 07:44:33;;;;;;;;;;;10.80;87.20;;;;;;5064846;28;19960;-68
2022/04/15 07:46:59;;;;;;;;;;;10.80;86.90;;;;;;5064360;28;20387;-68
2022/04/15 07:49:24;;;;;;;;;;;10.90;86.80;;;;;;5046104;28;20282;-68
2022/04/15 07:51:50;;;;;;;;;;;10.90;86.60;;;;;;5064397;28;19909;-68
2022/04/15 07:54:16;;;;;;;;;;;10.90;86.50;;;;;;5062530;28;19912;-68
2022/04/15 07:56:41;;;;;;;;;;;10.90;86.30;;;;;;5064856;28;20011;-68
2022/04/15 07:59:07;;;;;;;;;;;11.00;86.20;;;;;;5064622;28;20381;-68
2022/04/15 08:01:33;;;;;;;;;;;11.00;86.00;;;;;;5065679;28;20003;-68
2022/04/15 08:03:58;;;;;;;;;;;11.10;85.90;;;;;;5052782;28;19912;-68
2022/04/15 08:06:24;;;;;;;;;;;11.10;85.90;;;;;;5054031;28;19924;-68
2022/04/15 08:08:52;;;;;;;;;;;11.10;85.90;;;;;;5061390;28;19939;-68
2022/04/15 08:11:18;;;;;;;;;;;11.10;85.80;;;;;;5057461;28;19912;-68
2022/04/15 08:13:43;;;;;;;;;;;11.10;85.80;;;;;;5072290;28;20299;-68
2022/04/15 08:16:09;;;;;;;;;;;11.20;85.80;;;;;;5076680;28;19965;-68
2022/04/15 08:18:35;;;;;;;;;;;11.20;85.80;;;;;;5068579;28;20153;-68
2022/04/15 08:21:00;;;;;;;;;;;11.20;85.80;;;;;;5064229;28;20727;-69
2022/04/15 08:23:27;;;;;;;;;;;11.20;86.30;;;;;;5064194;28;20163;-68
2022/04/15 08:25:52;;;;;;;;;;;11.20;85.70;;;;;;5064281;28;19909;-68
2022/04/15 08:28:18;;;;;;;;;;;11.20;85.60;;;;;;5064333;28;20007;-68
2022/04/15 08:30:43;;;;;;;;;;;11.20;85.50;;;;;;5044691;28;19999;-68
2022/04/15 08:33:10;;;;;;;;;;;11.20;85.50;;;;;;5074297;28;19955;-69
2022/04/15 08:35:36;;;;;;;;;;;11.20;85.40;;;;;;5064660;28;20513;-68
2022/04/15 08:38:01;;;;;;;;;;;11.30;86.00;;;;;;5063902;28;19999;-68
2022/04/15 08:40:31;;;;;;;;;;;11.30;85.30;;;;;;5045928;28;19908;-68
2022/04/15 08:42:56;;;;;;;;;;;11.30;85.30;;;;;;5063380;28;19938;-68
2022/04/15 08:45:24;;;;;;;;;;;11.30;85.20;;;;;;5066797;28;19908;-68
2022/04/15 08:47:50;;;;;;;;;;;11.30;85.40;;;;;;5067659;28;19920;-68
2022/04/15 08:50:15;;;;;;;;;;;11.40;85.10;;;;;;5068340;28;19932;-68
2022/04/15 08:52:41;;;;;;;;;;;11.40;85.10;;;;;;5049443;28;19919;-68
2022/04/15 08:55:07;;;;;;;;;;;11.40;85.00;;;;;;5067619;28;20003;-68
2022/04/15 08:57:33;;;;;;;;;;;11.40;85.00;;;;;;5067427;28;20001;-68
2022/04/15 08:59:59;;;;;;;;;;;11.40;85.10;;;;;;5067088;28;20349;-68
2022/04/15 09:02:36;;;;;;;;;;;11.40;85.10;;;;;;5065040;28;20001;-68
2022/04/15 09:05:02;;;;;;;;;;;11.40;85.00;;;;;;5067720;28;20013;-68
2022/04/15 09:07:29;;;;;;;;;;;11.40;85.10;;;;;;5067068;28;19909;-68
2022/04/15 09:09:56;;;;;;;;;;;11.40;85.00;;;;;;5066169;28;20007;-68
2022/04/15 09:12:26;;;;;;;;;;;11.40;85.00;;;;;;5066783;28;19920;-68
2022/04/15 09:14:53;;;;;;;;;;;11.40;85.00;;;;;;5063873;28;19919;-68
2022/04/15 09:17:22;;;;;;;;;;;11.40;85.10;;;;;;5067869;28;19920;-68
2022/04/15 09:19:48;;;;;;;;;;;11.40;85.00;;;;;;5067895;28;19909;-68
2022/04/15 09:22:17;;;;;;;;;;;11.40;85.00;;;;;;5067063;28;20403;-68
2022/04/15 09:24:42;;;;;;;;;;;11.40;85.60;;;;;;5053724;28;20384;-68
2022/04/15 09:27:08;;;;;;;;;;;11.40;85.00;;;;;;5066115;28;19912;-68
2022/04/15 09:29:34;;;;;;;;;;;11.50;85.00;;;;;;5066041;28;19923;-68
2022/04/15 09:32:07;;;;;;;;;;;11.40;85.00;;;;;;5070940;28;19980;-68
2022/04/15 09:34:32;;;;;;;;;;;11.50;85.10;;;;;;5071124;28;19917;-68
2022/04/15 09:36:58;;;;;;;;;;;11.50;85.10;;;;;;5066595;28;19934;-68
2022/04/15 09:39:23;;;;;;;;;;;11.50;85.10;;;;;;5048187;28;19925;-68
2022/04/15 09:41:56;;;;;;;;;;;11.50;85.10;;;;;;5066126;28;19917;-68
2022/04/15 09:44:22;;;;;;;;;;;11.50;85.20;;;;;;5065940;28;19919;-68
2022/04/15 09:46:50;;;;;;;;;;;11.50;85.20;;;;;;5066632;28;19908;-68
2022/04/15 09:49:16;;;;;;;;;;;11.50;85.10;;;;;;5080176;28;19924;-68
2022/04/15 09:51:45;;;;;;;;;;;11.50;85.10;;;;;;5066255;28;19966;-68
2022/04/15 09:54:22;;;;;;;;;;;11.50;85.00;;;;;;5066512;28;20452;-68
2022/04/15 09:56:48;;;;;;;;;;;11.50;85.10;;;;;;5062182;28;19912;-68
2022/04/15 09:59:15;;;;;;;;;;;11.50;85.10;;;;;;5049539;28;19916;-68
2022/04/15 10:01:45;;;;;;;;;;;11.50;85.00;;;;;;5068578;28;19983;-68
2022/04/15 10:04:11;;;;;;;;;;;11.50;85.00;;;;;;5054604;28;20626;-69
2022/04/15 10:06:38;;;;;;;;;;;11.50;85.00;;;;;;5065610;28;20034;-68
2022/04/15 10:09:04;;;;;;;;;;;11.50;85.00;;;;;;5048257;28;20631;-68
2022/04/15 10:11:35;;;;;;;;;;;11.50;85.00;;;;;;5065789;28;19917;-68
2022/04/15 10:14:00;;;;;;;;;;;11.50;84.90;;;;;;5065166;28;19951;-68
2022/04/15 10:16:26;;;;;;;;;;;11.60;84.90;;;;;;5064943;28;20346;-68
2022/04/15 10:18:52;;;;;;;;;;;11.50;84.80;;;;;;5064915;28;19909;-68
2022/04/15 10:21:18;;;;;;;;;;;11.60;84.80;;;;;;5065516;28;19923;-68
2022/04/15 10:23:44;;;;;;;;;;;11.60;84.70;;;;;;5065721;28;19930;-68
2022/04/15 10:26:09;;;;;;;;;;;11.60;84.70;;;;;;5065894;28;19912;-68
2022/04/15 10:28:45;;;;;;;;;;;11.60;84.60;;;;;;5066009;28;19912;-68
2022/04/15 10:31:13;;;;;;;;;;;11.60;84.50;;;;;;5065294;28;20337;-68
2022/04/15 10:33:43;;;;;;;;;;;11.70;84.40;;;;;;5073745;28;19912;-68
2022/04/15 10:36:11;;;;;;;;;;;11.70;84.50;;;;;;5064974;28;20002;-68
2022/04/15 10:38:37;;;;;;;;;;;11.70;84.40;;;;;;5065629;28;19909;-68
2022/04/15 10:41:13;;;;;;;;;;;11.70;84.40;;;;;;5064776;28;20529;-68
2022/04/15 10:43:54;;;;;;;;;;;11.70;84.30;;;;;;5064833;28;19913;-68
2022/04/15 10:46:27;;;;;;;;;;;11.70;84.30;;;;;;5064778;28;20222;-68
2022/04/15 10:48:53;;;;;;;;;;;11.70;84.30;;;;;;5077942;28;19927;-68
2022/04/15 10:51:27;;;;;;;;;;;11.80;84.20;;;;;;5046360;28;19912;-68
2022/04/15 10:53:53;;;;;;;;;;;11.80;84.20;;;;;;5064089;28;19965;-68
2022/04/15 10:56:20;;;;;;;;;;;11.80;84.10;;;;;;5061666;28;19912;-68
2022/04/15 11:01:56;;;;;;;;;;;11.90;83.90;;;;;;5073541;28;20467;-68
2022/04/15 11:04:25;;;;;;;;;;;11.90;83.90;;;;;;5066678;28;19932;-68
2022/04/15 11:06:52;;;;;;;;;;;11.90;83.80;;;;;;5063555;28;19916;-68
2022/04/15 11:09:21;;;;;;;;;;;12.00;83.80;;;;;;5070849;28;20364;-68
2022/04/15 11:11:49;;;;;;;;;;;12.00;83.80;;;;;;5063086;28;19986;-68
2022/04/15 11:14:16;;;;;;;;;;;12.00;83.80;;;;;;5067959;28;20380;-68
2022/04/15 11:16:42;;;;;;;;;;;12.00;83.60;;;;;;5063183;28;19923;-68
2022/04/15 11:19:08;;;;;;;;;;;12.00;83.60;;;;;;5063522;28;19912;-68
2022/04/15 11:21:37;;;;;;;;;;;12.10;83.60;;;;;;5063677;28;19912;-68
2022/04/15 11:24:04;;;;;;;;;;;12.10;83.50;;;;;;5063906;28;19920;-68
2022/04/15 11:26:30;;;;;;;;;;;12.10;83.40;;;;;;5063830;28;19913;-69
2022/04/15 11:28:57;;;;;;;;;;;12.20;83.30;;;;;;5046863;28;19989;-68
2022/04/15 11:31:26;;;;;;;;;;;12.20;83.30;;;;;;5063619;28;19977;-68
2022/04/15 11:33:56;;;;;;;;;;;12.30;83.20;;;;;;5064290;28;19956;-68
2022/04/15 11:36:22;;;;;;;;;;;12.30;83.00;;;;;;5045344;28;19917;-68
2022/04/15 11:38:48;;;;;;;;;;;12.30;82.90;;;;;;5064299;28;20329;-68
2022/04/15 11:41:18;;;;;;;;;;;12.40;82.90;;;;;;5062733;28;20326;-68
2022/04/15 11:43:57;;;;;;;;;;;12.40;82.70;;;;;;5064252;28;20284;-68
2022/04/15 11:46:23;;;;;;;;;;;12.40;82.70;;;;;;5063802;28;19951;-68
2022/04/15 11:48:50;;;;;;;;;;;12.50;82.70;;;;;;5063215;28;19968;-68
2022/04/15 11:51:17;;;;;;;;;;;12.50;82.70;;;;;;5045412;28;20397;-68
2022/04/15 11:53:43;;;;;;;;;;;12.50;82.60;;;;;;5063646;28;19986;-68
2022/04/15 11:56:09;;;;;;;;;;;12.50;82.60;;;;;;5063699;28;19920;-68
2022/04/15 11:58:35;;;;;;;;;;;12.50;82.50;;;;;;5045319;28;19916;-68
2022/04/15 12:01:02;;;;;;;;;;;12.60;82.50;;;;;;5072602;28;19912;-68
2022/04/15 12:03:28;;;;;;;;;;;12.60;82.40;;;;;;5062270;28;19916;-68
2022/04/15 12:05:57;;;;;;;;;;;12.70;82.30;;;;;;5045414;28;20085;-68
2022/04/15 12:08:23;;;;;;;;;;;12.70;82.20;;;;;;5060426;28;19938;-68
2022/04/15 12:10:49;;;;;;;;;;;12.80;82.10;;;;;;5045720;28;19966;-68
2022/04/15 12:13:15;;;;;;;;;;;12.80;82.00;;;;;;5059206;28;19916;-68
2022/04/15 12:15:41;;;;;;;;;;;12.80;81.80;;;;;;5052383;28;19923;-68
2022/04/15 12:18:07;;;;;;;;;;;12.90;81.60;;;;;;5062136;28;20023;-69
2022/04/15 12:20:33;;;;;;;;;;;12.90;81.50;;;;;;5062473;28;20020;-68
2022/04/15 12:23:02;;;;;;;;;;;13.00;81.50;;;;;;5065969;28;19916;-68
2022/04/15 12:29:47;;;;;;;;;;;13.00;81.20;;;;;;5065411;28;20046;-68
2022/04/15 12:30:57;;;;;;;;;;;13.10;81.30;;;;;;5066201;28;19912;-68
2022/04/15 12:33:23;;;;;;;;;;;13.10;81.20;;;;;;5061475;28;20007;-68
2022/04/15 12:36:17;;;;;;;;;;;13.10;81.20;;;;;;5065585;28;20026;-68
2022/04/15 12:38:59;;;;;;;;;;;13.10;81.20;;;;;;5060549;28;19965;-68
2022/04/15 12:41:35;;;;;;;;;;;13.10;81.80;;;;;;5048077;28;19920;-68
2022/04/15 12:44:16;;;;;;;;;;;13.10;81.30;;;;;;5066539;28;19916;-68
2022/04/15 12:46:43;;;;;;;;;;;13.10;81.20;;;;;;5064842;28;20004;-68
2022/04/15 12:49:25;;;;;;;;;;;13.20;81.20;;;;;;5065316;28;20544;-68
2022/04/15 12:51:50;;;;;;;;;;;13.20;81.10;;;;;;5066370;28;19908;-68
2022/04/15 12:54:16;;;;;;;;;;;13.20;81.20;;;;;;5066125;28;20437;-68
2022/04/15 12:56:54;;;;;;;;;;;13.20;81.10;;;;;;5066865;28;19962;-68
2022/04/15 12:59:19;;;;;;;;;;;13.30;81.20;;;;;;5077763;28;20390;-68
2022/04/15 13:01:45;;;;;;;;;;;13.30;81.00;;;;;;5072098;28;19963;-68
2022/04/15 13:04:14;;;;;;;;;;;13.30;81.00;;;;;;5068089;28;20234;-68
2022/04/15 13:06:39;;;;;;;;;;;13.40;80.90;;;;;;5066451;28;19913;-68
2022/04/15 13:09:04;;;;;;;;;;;13.40;80.80;;;;;;5066314;28;19984;-68
2022/04/15 13:11:30;;;;;;;;;;;13.40;80.50;;;;;;5064928;28;19908;-68
2022/04/15 13:13:56;;;;;;;;;;;13.40;80.50;;;;;;5066267;28;20035;-68
2022/04/15 13:16:21;;;;;;;;;;;13.40;80.30;;;;;;5066441;28;19912;-68
2022/04/15 13:18:47;;;;;;;;;;;13.50;80.40;;;;;;5066520;28;19946;-68
2022/04/15 13:21:13;;;;;;;;;;;13.50;80.50;;;;;;5066679;28;19962;-68
2022/04/15 13:23:38;;;;;;;;;;;13.50;80.40;;;;;;5066264;28;19917;-68
2022/04/15 13:26:04;;;;;;;;;;;13.50;81.00;;;;;;5066319;28;19921;-68
2022/04/15 13:28:29;;;;;;;;;;;13.60;80.20;;;;;;5065972;28;19908;-68
2022/04/15 13:30:55;;;;;;;;;;;13.60;80.20;;;;;;5066424;28;20011;-68
2022/04/15 13:33:20;;;;;;;;;;;13.60;80.20;;;;;;5049723;28;19951;-68
2022/04/15 13:35:46;;;;;;;;;;;13.60;80.20;;;;;;5068279;28;19934;-68
2022/04/15 13:38:11;;;;;;;;;;;13.70;80.20;;;;;;5065699;28;19920;-68
2022/04/15 13:40:39;;;;;;;;;;;13.70;80.20;;;;;;5065443;28;19912;-68
2022/04/15 13:43:05;;;;;;;;;;;13.70;80.00;;;;;;5066049;28;19958;-68
2022/04/15 13:45:30;;;;;;;;;;;13.80;80.00;;;;;;5065922;28;19936;-68
2022/04/15 13:47:56;;;;;;;;;;;13.80;79.90;;;;;;5047876;28;19966;-68
2022/04/15 13:50:22;;;;;;;;;;;13.80;79.90;;;;;;5045706;28;19912;-68
2022/04/15 13:58:15;;;;;;;;;;;13.90;79.80;;;;;;5068086;28;19919;-67
2022/04/15 14:00:41;;;;;;;;;;;13.90;79.90;;;;;;5074352;28;19912;-68
2022/04/15 14:03:06;;;;;;;;;;;13.90;79.80;;;;;;5068149;28;19920;-68
2022/04/15 14:05:32;;;;;;;;;;;13.90;79.80;;;;;;5065266;28;19908;-68
2022/04/15 14:07:57;;;;;;;;;;;13.90;79.80;;;;;;5064673;28;19909;-68
2022/04/15 14:10:23;;;;;;;;;;;13.90;80.00;;;;;;5065367;28;19916;-68
2022/04/15 14:12:50;;;;;;;;;;;13.90;80.00;;;;;;5065543;28;19912;-68
2022/04/15 14:15:18;;;;;;;;;;;13.90;80.00;;;;;;5047245;28;19912;-68
2022/04/15 14:17:43;;;;;;;;;;;13.90;79.90;;;;;;5065593;28;20618;-68
2022/04/15 14:20:09;;;;;;;;;;;13.90;80.00;;;;;;5065095;28;19916;-68
2022/04/15 14:22:35;;;;;;;;;;;13.90;79.90;;;;;;5050890;28;20281;-68